Time,TemperatureF,DewpointF,PressureIn,WindDirection,WindDirectionDegrees,WindSpeedMPH,WindSpeedGustMPH,Humidity,HourlyPrecipIn,Conditions,Clouds,dailyrainin,SolarRadiationWatts/m^2,SoftwareType,DateUTC
2013-01-13 00:03:00,58.0,57.0,-100.00,NW,320,2.0,5.0,96,0.00,,,0.04,0.000000,,2013-01-13 05:03:00,
2013-01-13 00:11:00,58.0,57.0,-100.00,NW,323,3.0,5.0,96,0.00,,,0.04,0.000000,,2013-01-13 05:11:00,
2013-01-13 00:33:00,58.0,57.0,-100.00,NW,323,3.0,5.0,96,0.00,,,0.04,0.000000,,2013-01-13 05:33:00,
2013-01-13 00:42:00,58.0,57.0,-100.00,NW,323,3.0,5.0,96,0.00,,,0.04,0.000000,,2013-01-13 05:42:00,
2013-01-13 00:53:00,58.0,57.0,-100.00,NW,323,3.0,5.0,96,0.00,,,0.04,0.000000,,2013-01-13 05:53:00,
2013-01-13 01:03:00,58.0,57.0,-100.00,NW,323,3.0,5.0,96,0.00,,,0.04,0.000000,,2013-01-13 06:03:00,
2013-01-13 01:11:00,58.0,55.0,-100.00,NW,314,3.0,11.0,89,0.00,,,0.04,0.000000,,2013-01-13 06:11:00,
2013-01-13 01:33:00,58.0,55.0,-100.00,NW,314,3.0,11.0,89,0.00,,,0.04,0.000000,,2013-01-13 06:33:00,
2013-01-13 01:42:00,58.0,55.0,-100.00,NW,314,3.0,11.0,89,0.00,,,0.04,0.000000,,2013-01-13 06:42:00,
2013-01-13 01:52:00,58.0,55.0,-100.00,NW,314,3.0,11.0,89,0.00,,,0.04,0.000000,,2013-01-13 06:52:00,
2013-01-13 02:02:00,58.0,55.0,-100.00,NW,314,3.0,11.0,89,0.00,,,0.04,0.000000,,2013-01-13 07:02:00,
2013-01-13 02:11:00,58.0,54.0,-100.00,NW,326,3.0,9.0,85,0.00,,,0.04,0.000000,,2013-01-13 07:11:00,
2013-01-13 02:33:00,58.0,54.0,-100.00,NW,326,3.0,9.0,85,0.00,,,0.04,0.000000,,2013-01-13 07:33:00,
2013-01-13 02:42:00,58.0,54.0,-100.00,NW,326,3.0,9.0,85,0.00,,,0.04,0.000000,,2013-01-13 07:42:00,
2013-01-13 02:53:00,58.0,54.0,-100.00,NW,326,3.0,9.0,85,0.00,,,0.04,0.000000,,2013-01-13 07:53:00,
2013-01-13 03:02:00,58.0,54.0,-100.00,NW,326,3.0,9.0,85,0.00,,,0.04,0.000000,,2013-01-13 08:02:00,
2013-01-13 03:11:00,57.0,51.0,-100.00,West,279,4.0,12.0,81,0.00,,,0.03,0.000000,,2013-01-13 08:11:00,
2013-01-13 03:32:00,57.0,51.0,-100.00,West,279,4.0,12.0,81,0.00,,,0.03,0.000000,,2013-01-13 08:32:00,
2013-01-13 03:42:00,57.0,51.0,-100.00,West,279,4.0,12.0,81,0.00,,,0.03,0.000000,,2013-01-13 08:42:00,
2013-01-13 03:53:00,57.0,51.0,-100.00,West,279,4.0,12.0,81,0.00,,,0.03,0.000000,,2013-01-13 08:53:00,
2013-01-13 04:02:00,57.0,51.0,-100.00,West,279,4.0,12.0,81,0.00,,,0.03,0.000000,,2013-01-13 09:02:00,
2013-01-13 04:11:00,57.0,52.0,-100.00,WNW,291,6.0,11.0,83,0.00,,,0.03,0.000000,,2013-01-13 09:11:00,
2013-01-13 04:32:00,57.0,52.0,-100.00,WNW,291,6.0,11.0,83,0.00,,,0.03,0.000000,,2013-01-13 09:32:00,
2013-01-13 04:43:00,57.0,52.0,-100.00,WNW,291,6.0,11.0,83,0.00,,,0.03,0.000000,,2013-01-13 09:43:00,
2013-01-13 04:53:00,57.0,52.0,-100.00,WNW,291,6.0,11.0,83,0.00,,,0.03,0.000000,,2013-01-13 09:53:00,
2013-01-13 05:03:00,57.0,52.0,-100.00,WNW,291,6.0,11.0,83,0.00,,,0.03,0.000000,,2013-01-13 10:03:00,
2013-01-13 05:11:00,57.0,50.0,-100.00,SSW,211,3.0,11.0,78,0.00,,,0.00,0.000000,,2013-01-13 10:11:00,
2013-01-13 05:33:00,57.0,50.0,-100.00,SSW,211,3.0,11.0,78,0.00,,,0.00,0.000000,,2013-01-13 10:33:00,
2013-01-13 05:42:00,57.0,50.0,-100.00,SSW,211,3.0,11.0,78,0.00,,,0.00,0.000000,,2013-01-13 10:42:00,
2013-01-13 05:53:00,57.0,50.0,-100.00,SSW,211,3.0,11.0,78,0.00,,,0.00,0.000000,,2013-01-13 10:53:00,
2013-01-13 06:02:00,57.0,50.0,-100.00,SSW,211,3.0,11.0,78,0.00,,,0.00,0.000000,,2013-01-13 11:02:00,
2013-01-13 06:11:00,58.0,49.0,-100.00,NW,312,4.0,16.0,73,0.00,,,0.00,0.000000,,2013-01-13 11:11:00,
2013-01-13 06:33:00,58.0,49.0,-100.00,NW,312,4.0,16.0,73,0.00,,,0.00,0.000000,,2013-01-13 11:33:00,
2013-01-13 06:43:00,58.0,49.0,-100.00,NW,312,4.0,16.0,73,0.00,,,0.00,0.000000,,2013-01-13 11:43:00,
2013-01-13 06:53:00,58.0,49.0,-100.00,NW,312,4.0,16.0,73,0.00,,,0.00,0.000000,,2013-01-13 11:53:00,
2013-01-13 07:03:00,58.0,49.0,-100.00,NW,312,4.0,16.0,73,0.00,,,0.00,0.000000,,2013-01-13 12:03:00,
2013-01-13 07:11:00,58.0,48.0,-100.00,North,9,2.0,9.0,70,0.00,,,0.00,0.000000,,2013-01-13 12:11:00,
2013-01-13 07:33:00,58.0,48.0,-100.00,North,9,2.0,9.0,70,0.00,,,0.00,0.000000,,2013-01-13 12:33:00,
2013-01-13 07:42:00,58.0,48.0,-100.00,North,9,2.0,9.0,70,0.00,,,0.00,0.000000,,2013-01-13 12:42:00,
2013-01-13 07:53:00,58.0,48.0,-100.00,North,9,2.0,9.0,70,0.00,,,0.00,0.000000,,2013-01-13 12:53:00,
2013-01-13 08:03:00,58.0,48.0,-100.00,North,9,2.0,9.0,70,0.00,,,0.00,0.000000,,2013-01-13 13:03:00,
2013-01-13 08:11:00,58.0,49.0,-100.00,ENE,58,2.0,7.0,73,0.00,,,0.00,5.000000,,2013-01-13 13:11:00,
2013-01-13 08:33:00,58.0,49.0,-100.00,ENE,58,2.0,7.0,73,0.00,,,0.00,5.000000,,2013-01-13 13:33:00,
2013-01-13 08:43:00,58.0,49.0,-100.00,ENE,58,2.0,7.0,73,0.00,,,0.00,5.000000,,2013-01-13 13:43:00,
2013-01-13 08:53:00,58.0,49.0,-100.00,ENE,58,2.0,7.0,73,0.00,,,0.00,5.000000,,2013-01-13 13:53:00,
2013-01-13 09:03:00,58.0,49.0,-100.00,ENE,58,2.0,7.0,73,0.00,,,0.00,5.000000,,2013-01-13 14:03:00,
2013-01-13 09:11:00,59.0,51.0,-100.00,ENE,60,4.0,10.0,75,0.00,,,0.00,67.000000,,2013-01-13 14:11:00,
2013-01-13 09:33:00,59.0,51.0,-100.00,ENE,60,4.0,10.0,75,0.00,,,0.00,67.000000,,2013-01-13 14:33:00,
2013-01-13 09:43:00,59.0,51.0,-100.00,ENE,60,4.0,10.0,75,0.00,,,0.00,67.000000,,2013-01-13 14:43:00,
2013-01-13 09:53:00,59.0,51.0,-100.00,ENE,60,4.0,10.0,75,0.00,,,0.00,67.000000,,2013-01-13 14:53:00,
2013-01-13 10:03:00,59.0,51.0,-100.00,ENE,60,4.0,10.0,75,0.00,,,0.00,67.000000,,2013-01-13 15:03:00,
2013-01-13 10:11:00,62.0,52.0,-100.00,NW,311,3.0,14.0,70,0.00,,,0.00,201.000000,,2013-01-13 15:11:00,
2013-01-13 10:33:00,62.0,52.0,-100.00,NW,311,3.0,14.0,70,0.00,,,0.00,201.000000,,2013-01-13 15:33:00,
2013-01-13 10:43:00,62.0,52.0,-100.00,NW,311,3.0,14.0,70,0.00,,,0.00,201.000000,,2013-01-13 15:43:00,
2013-01-13 10:53:00,62.0,52.0,-100.00,NW,311,3.0,14.0,70,0.00,,,0.00,201.000000,,2013-01-13 15:53:00,
2013-01-13 11:04:00,62.0,52.0,-100.00,NW,311,3.0,14.0,70,0.00,,,0.00,201.000000,,2013-01-13 16:04:00,
2013-01-13 11:11:00,65.0,51.0,-100.00,North,1,3.0,10.0,60,0.00,,,0.00,212.000000,,2013-01-13 16:11:00,
2013-01-13 11:33:00,65.0,51.0,-100.00,North,1,3.0,10.0,60,0.00,,,0.00,212.000000,,2013-01-13 16:33:00,
2013-01-13 11:43:00,65.0,51.0,-100.00,North,1,3.0,10.0,60,0.00,,,0.00,212.000000,,2013-01-13 16:43:00,
2013-01-13 11:53:00,65.0,51.0,-100.00,North,1,3.0,10.0,60,0.00,,,0.00,212.000000,,2013-01-13 16:53:00,
2013-01-13 12:03:00,65.0,51.0,-100.00,North,1,3.0,10.0,60,0.00,,,0.00,212.000000,,2013-01-13 17:03:00,
2013-01-13 12:11:00,65.0,51.0,-100.00,NW,319,5.0,11.0,60,0.00,,,0.00,208.000000,,2013-01-13 17:11:00,
2013-01-13 12:33:00,65.0,51.0,-100.00,NW,319,5.0,11.0,60,0.00,,,0.00,208.000000,,2013-01-13 17:33:00,
2013-01-13 12:43:00,65.0,51.0,-100.00,NW,319,5.0,11.0,60,0.00,,,0.00,208.000000,,2013-01-13 17:43:00,
2013-01-13 12:53:00,65.0,51.0,-100.00,NW,319,5.0,11.0,60,0.00,,,0.00,208.000000,,2013-01-13 17:53:00,
2013-01-13 13:03:00,65.0,51.0,-100.00,NW,319,5.0,11.0,60,0.00,,,0.00,208.000000,,2013-01-13 18:03:00,
2013-01-13 13:11:00,62.0,51.0,-100.00,ENE,65,3.0,12.0,66,0.00,,,0.00,190.000000,,2013-01-13 18:11:00,
2013-01-13 13:33:00,62.0,51.0,-100.00,ENE,65,3.0,12.0,66,0.00,,,0.00,190.000000,,2013-01-13 18:33:00,
2013-01-13 13:43:00,62.0,51.0,-100.00,ENE,65,3.0,12.0,66,0.00,,,0.00,190.000000,,2013-01-13 18:43:00,
2013-01-13 13:53:00,62.0,51.0,-100.00,ENE,65,3.0,12.0,66,0.00,,,0.00,190.000000,,2013-01-13 18:53:00,
2013-01-13 14:03:00,62.0,51.0,-100.00,ENE,65,3.0,12.0,66,0.00,,,0.00,190.000000,,2013-01-13 19:03:00,
2013-01-13 14:11:00,61.0,53.0,-100.00,NE,38,3.0,6.0,75,0.00,,,0.00,131.000000,,2013-01-13 19:11:00,
2013-01-13 14:43:00,61.0,53.0,-100.00,NE,38,3.0,6.0,75,0.00,,,0.00,131.000000,,2013-01-13 19:43:00,
2013-01-13 14:53:00,61.0,53.0,-100.00,NE,38,3.0,6.0,75,0.00,,,0.00,131.000000,,2013-01-13 19:53:00,
2013-01-13 15:03:00,61.0,53.0,-100.00,NE,38,3.0,6.0,75,0.00,,,0.00,131.000000,,2013-01-13 20:03:00,
2013-01-13 15:11:00,63.0,53.0,-100.00,East,80,4.0,6.0,71,0.00,,,0.00,295.000000,,2013-01-13 20:11:00,
2013-01-13 15:33:00,63.0,53.0,-100.00,East,80,4.0,6.0,71,0.00,,,0.00,295.000000,,2013-01-13 20:33:00,
2013-01-13 15:43:00,63.0,53.0,-100.00,East,80,4.0,6.0,71,0.00,,,0.00,295.000000,,2013-01-13 20:43:00,
2013-01-13 15:53:00,63.0,53.0,-100.00,East,80,4.0,6.0,71,0.00,,,0.00,295.000000,,2013-01-13 20:53:00,
2013-01-13 16:03:00,63.0,53.0,-100.00,East,80,4.0,6.0,71,0.00,,,0.00,295.000000,,2013-01-13 21:03:00,
2013-01-13 16:11:00,60.0,56.0,-100.00,ENE,74,2.0,7.0,86,0.00,,,0.00,162.000000,,2013-01-13 21:11:00,
2013-01-13 16:33:00,60.0,56.0,-100.00,ENE,74,2.0,7.0,86,0.00,,,0.00,162.000000,,2013-01-13 21:33:00,
2013-01-13 16:43:00,60.0,56.0,-100.00,ENE,74,2.0,7.0,86,0.00,,,0.00,162.000000,,2013-01-13 21:43:00,
2013-01-13 16:53:00,60.0,56.0,-100.00,ENE,74,2.0,7.0,86,0.00,,,0.00,162.000000,,2013-01-13 21:53:00,
2013-01-13 17:03:00,60.0,56.0,-100.00,ENE,74,2.0,7.0,86,0.00,,,0.00,162.000000,,2013-01-13 22:03:00,
2013-01-13 18:11:00,59.0,56.0,-100.00,ESE,103,2.0,6.0,91,-99.99,,,0.00,1.000000,,2013-01-13 23:11:00,
2013-01-13 18:33:00,59.0,56.0,-100.00,ESE,103,2.0,6.0,91,-99.99,,,0.00,1.000000,,2013-01-13 23:33:00,
2013-01-13 18:43:00,59.0,56.0,-100.00,ESE,103,2.0,6.0,91,-99.99,,,0.00,1.000000,,2013-01-13 23:43:00,
2013-01-13 18:53:00,59.0,56.0,-100.00,ESE,103,2.0,6.0,91,-99.99,,,0.00,1.000000,,2013-01-13 23:53:00,
2013-01-13 19:03:00,59.0,56.0,-100.00,ESE,103,2.0,6.0,91,-99.99,,,0.00,1.000000,,2013-01-14 00:03:00,
2013-01-13 19:11:00,59.0,55.0,-100.00,SE,143,1.0,5.0,88,0.00,,,0.00,0.000000,,2013-01-14 00:11:00,
2013-01-13 19:43:00,59.0,55.0,-100.00,SE,143,1.0,5.0,88,0.00,,,0.00,0.000000,,2013-01-14 00:43:00,
2013-01-13 19:53:00,59.0,55.0,-100.00,SE,143,1.0,5.0,88,0.00,,,0.00,0.000000,,2013-01-14 00:53:00,
2013-01-13 20:03:00,59.0,55.0,-100.00,SE,143,1.0,5.0,88,0.00,,,0.00,0.000000,,2013-01-14 01:03:00,
2013-01-13 20:11:00,62.0,54.0,-100.00,ESE,114,3.0,7.0,74,0.00,,,0.00,0.000000,,2013-01-14 01:11:00,
2013-01-13 20:42:00,62.0,54.0,-100.00,ESE,114,3.0,7.0,74,0.00,,,0.00,0.000000,,2013-01-14 01:42:00,
2013-01-13 20:53:00,62.0,54.0,-100.00,ESE,114,3.0,7.0,74,0.00,,,0.00,0.000000,,2013-01-14 01:53:00,
2013-01-13 21:03:00,62.0,54.0,-100.00,ESE,114,3.0,7.0,74,0.00,,,0.00,0.000000,,2013-01-14 02:03:00,
2013-01-13 21:11:00,59.0,53.0,-100.00,ENE,68,2.0,6.0,81,0.01,,,0.01,0.000000,,2013-01-14 02:11:00,
2013-01-13 21:43:00,59.0,53.0,-100.00,ENE,68,2.0,6.0,81,0.01,,,0.01,0.000000,,2013-01-14 02:43:00,
2013-01-13 21:53:00,59.0,53.0,-100.00,ENE,68,2.0,6.0,81,0.01,,,0.01,0.000000,,2013-01-14 02:53:00,
2013-01-13 22:03:00,59.0,53.0,-100.00,ENE,68,2.0,6.0,81,0.01,,,0.01,0.000000,,2013-01-14 03:03:00,
2013-01-13 22:11:00,57.0,56.0,-100.00,South,191,1.0,7.0,96,0.12,,,0.13,0.000000,,2013-01-14 03:11:00,
2013-01-13 22:33:00,57.0,56.0,-100.00,South,191,1.0,7.0,96,0.12,,,0.13,0.000000,,2013-01-14 03:33:00,
2013-01-13 22:43:00,57.0,56.0,-100.00,South,191,1.0,7.0,96,0.12,,,0.13,0.000000,,2013-01-14 03:43:00,
2013-01-13 22:53:00,57.0,56.0,-100.00,South,191,1.0,7.0,96,0.12,,,0.13,0.000000,,2013-01-14 03:53:00,
2013-01-13 23:03:00,57.0,56.0,-100.00,South,191,1.0,7.0,96,0.12,,,0.13,0.000000,,2013-01-14 04:03:00,
2013-01-13 23:11:00,57.0,56.0,-100.00,ENE,64,3.0,6.0,98,0.17,,,0.30,0.000000,,2013-01-14 04:11:00,
2013-01-13 23:32:00,57.0,56.0,-100.00,ENE,64,3.0,6.0,98,0.17,,,0.30,0.000000,,2013-01-14 04:32:00,
2013-01-13 23:42:00,57.0,56.0,-100.00,ENE,64,3.0,6.0,98,0.17,,,0.30,0.000000,,2013-01-14 04:42:00,
2013-01-13 23:53:00,57.0,56.0,-100.00,ENE,64,3.0,6.0,98,0.17,,,0.30,0.000000,,2013-01-14 04:53:00,